sensor_id;sensor_type;location;lat;lon;timestamp;temperature;humidity
68433;DHT22;55412;51.350;17.056;2022-11-24T00:01:14;1.30;83.10
68433;DHT22;55412;51.350;17.056;2022-11-24T00:03:50;1.40;83.50
68433;DHT22;55412;51.350;17.056;2022-11-24T00:06:27;1.50;83.30
68433;DHT22;55412;51.350;17.056;2022-11-24T00:08:55;1.40;82.30
68433;DHT22;55412;51.350;17.056;2022-11-24T00:11:25;1.30;81.40
68433;DHT22;55412;51.350;17.056;2022-11-24T00:13:53;1.10;81.90
68433;DHT22;55412;51.350;17.056;2022-11-24T00:16:25;1.10;83.50
68433;DHT22;55412;51.350;17.056;2022-11-24T00:18:54;1.10;83.30
68433;DHT22;55412;51.350;17.056;2022-11-24T00:21:22;1.20;84.70
68433;DHT22;55412;51.350;17.056;2022-11-24T00:23:49;1.40;84.80
68433;DHT22;55412;51.350;17.056;2022-11-24T00:26:21;1.50;84.50
68433;DHT22;55412;51.350;17.056;2022-11-24T00:28:50;1.60;84.50
68433;DHT22;55412;51.350;17.056;2022-11-24T00:31:37;1.60;83.70
68433;DHT22;55412;51.350;17.056;2022-11-24T00:34:13;1.70;83.40
68433;DHT22;55412;51.350;17.056;2022-11-24T00:36:40;1.80;83.30
68433;DHT22;55412;51.350;17.056;2022-11-24T00:39:15;1.80;82.60
68433;DHT22;55412;51.350;17.056;2022-11-24T00:41:42;1.80;81.90
68433;DHT22;55412;51.350;17.056;2022-11-24T00:44:08;1.70;81.50
68433;DHT22;55412;51.350;17.056;2022-11-24T00:46:34;1.60;81.50
68433;DHT22;55412;51.350;17.056;2022-11-24T00:49:00;1.60;82.00
68433;DHT22;55412;51.350;17.056;2022-11-24T00:51:28;1.60;81.90
68433;DHT22;55412;51.350;17.056;2022-11-24T00:53:58;1.60;82.10
68433;DHT22;55412;51.350;17.056;2022-11-24T00:56:26;1.60;82.80
68433;DHT22;55412;51.350;17.056;2022-11-24T00:58:53;1.70;83.20
68433;DHT22;55412;51.350;17.056;2022-11-24T01:01:22;1.70;81.80
68433;DHT22;55412;51.350;17.056;2022-11-24T01:03:49;1.70;81.50
68433;DHT22;55412;51.350;17.056;2022-11-24T01:06:21;1.60;81.40
68433;DHT22;55412;51.350;17.056;2022-11-24T01:08:51;1.60;81.60
68433;DHT22;55412;51.350;17.056;2022-11-24T01:13:55;1.60;81.80
68433;DHT22;55412;51.350;17.056;2022-11-24T01:16:25;1.60;81.90
68433;DHT22;55412;51.350;17.056;2022-11-24T01:18:54;1.70;81.80
68433;DHT22;55412;51.350;17.056;2022-11-24T01:21:20;1.80;81.60
68433;DHT22;55412;51.350;17.056;2022-11-24T01:23:47;1.90;81.10
68433;DHT22;55412;51.350;17.056;2022-11-24T01:26:16;1.80;80.40
68433;DHT22;55412;51.350;17.056;2022-11-24T01:28:43;1.70;81.10
68433;DHT22;55412;51.350;17.056;2022-11-24T01:31:10;1.70;81.60
68433;DHT22;55412;51.350;17.056;2022-11-24T01:33:37;1.70;81.80
68433;DHT22;55412;51.350;17.056;2022-11-24T01:36:04;1.80;81.20
68433;DHT22;55412;51.350;17.056;2022-11-24T01:38:31;1.80;81.10
68433;DHT22;55412;51.350;17.056;2022-11-24T01:41:05;1.80;80.90
68433;DHT22;55412;51.350;17.056;2022-11-24T01:43:39;1.70;81.20
68433;DHT22;55412;51.350;17.056;2022-11-24T01:51:44;1.60;81.70
68433;DHT22;55412;51.350;17.056;2022-11-24T01:54:18;1.70;82.00
68433;DHT22;55412;51.350;17.056;2022-11-24T01:56:50;1.70;81.60
68433;DHT22;55412;51.350;17.056;2022-11-24T01:59:19;1.60;81.70
68433;DHT22;55412;51.350;17.056;2022-11-24T02:01:47;1.60;82.00
68433;DHT22;55412;51.350;17.056;2022-11-24T02:04:17;1.60;81.90
68433;DHT22;55412;51.350;17.056;2022-11-24T02:06:45;1.60;81.80
68433;DHT22;55412;51.350;17.056;2022-11-24T02:09:32;1.50;81.60
68433;DHT22;55412;51.350;17.056;2022-11-24T02:12:04;1.50;82.20
68433;DHT22;55412;51.350;17.056;2022-11-24T02:14:31;1.40;81.60
68433;DHT22;55412;51.350;17.056;2022-11-24T02:16:59;1.30;81.80
68433;DHT22;55412;51.350;17.056;2022-11-24T02:22:35;1.30;82.50
68433;DHT22;55412;51.350;17.056;2022-11-24T02:25:35;1.40;82.50
68433;DHT22;55412;51.350;17.056;2022-11-24T02:28:11;1.50;82.60
68433;DHT22;55412;51.350;17.056;2022-11-24T02:30:39;1.50;83.20
68433;DHT22;55412;51.350;17.056;2022-11-24T02:33:05;1.70;82.70
68433;DHT22;55412;51.350;17.056;2022-11-24T02:35:31;1.70;81.80
68433;DHT22;55412;51.350;17.056;2022-11-24T02:37:58;1.80;81.20
68433;DHT22;55412;51.350;17.056;2022-11-24T02:40:26;1.80;81.20
68433;DHT22;55412;51.350;17.056;2022-11-24T02:42:57;1.80;80.80
68433;DHT22;55412;51.350;17.056;2022-11-24T02:45:27;1.80;80.80
68433;DHT22;55412;51.350;17.056;2022-11-24T02:47:53;1.70;80.50
68433;DHT22;55412;51.350;17.056;2022-11-24T02:50:19;1.60;81.30
68433;DHT22;55412;51.350;17.056;2022-11-24T02:52:45;1.60;80.90
68433;DHT22;55412;51.350;17.056;2022-11-24T02:55:11;1.50;82.30
68433;DHT22;55412;51.350;17.056;2022-11-24T02:57:38;1.50;81.50
68433;DHT22;55412;51.350;17.056;2022-11-24T03:00:04;1.40;81.50
68433;DHT22;55412;51.350;17.056;2022-11-24T03:02:30;1.30;81.90
68433;DHT22;55412;51.350;17.056;2022-11-24T03:04:56;1.40;84.00
68433;DHT22;55412;51.350;17.056;2022-11-24T03:07:22;1.60;83.90
68433;DHT22;55412;51.350;17.056;2022-11-24T03:09:48;1.70;83.30
68433;DHT22;55412;51.350;17.056;2022-11-24T03:12:14;1.80;83.20
68433;DHT22;55412;51.350;17.056;2022-11-24T03:14:40;1.90;83.30
68433;DHT22;55412;51.350;17.056;2022-11-24T03:17:06;1.90;82.50
68433;DHT22;55412;51.350;17.056;2022-11-24T03:19:32;2.00;82.80
68433;DHT22;55412;51.350;17.056;2022-11-24T03:21:58;1.90;81.50
68433;DHT22;55412;51.350;17.056;2022-11-24T03:24:24;1.80;80.90
68433;DHT22;55412;51.350;17.056;2022-11-24T03:26:50;1.70;81.10
68433;DHT22;55412;51.350;17.056;2022-11-24T03:29:16;1.50;81.60
68433;DHT22;55412;51.350;17.056;2022-11-24T03:31:43;1.50;81.90
68433;DHT22;55412;51.350;17.056;2022-11-24T03:34:09;1.40;81.90
68433;DHT22;55412;51.350;17.056;2022-11-24T03:36:35;1.40;82.30
68433;DHT22;55412;51.350;17.056;2022-11-24T03:39:01;1.30;82.80
68433;DHT22;55412;51.350;17.056;2022-11-24T03:41:27;1.40;83.30
68433;DHT22;55412;51.350;17.056;2022-11-24T03:43:53;1.40;82.90
68433;DHT22;55412;51.350;17.056;2022-11-24T03:46:19;1.50;84.50
68433;DHT22;55412;51.350;17.056;2022-11-24T03:48:45;1.60;83.30
68433;DHT22;55412;51.350;17.056;2022-11-24T03:51:11;1.60;82.40
68433;DHT22;55412;51.350;17.056;2022-11-24T03:53:37;1.70;82.30
68433;DHT22;55412;51.350;17.056;2022-11-24T03:56:03;1.60;81.30
68433;DHT22;55412;51.350;17.056;2022-11-24T03:58:30;1.60;81.10
68433;DHT22;55412;51.350;17.056;2022-11-24T04:00:56;1.50;81.60
68433;DHT22;55412;51.350;17.056;2022-11-24T04:03:22;1.50;81.90
68433;DHT22;55412;51.350;17.056;2022-11-24T04:05:49;1.50;82.00
68433;DHT22;55412;51.350;17.056;2022-11-24T04:08:16;1.50;82.40
68433;DHT22;55412;51.350;17.056;2022-11-24T04:10:42;1.50;82.00
68433;DHT22;55412;51.350;17.056;2022-11-24T04:13:14;1.50;81.70
68433;DHT22;55412;51.350;17.056;2022-11-24T04:15:42;1.40;82.10
68433;DHT22;55412;51.350;17.056;2022-11-24T04:18:10;1.40;82.30
68433;DHT22;55412;51.350;17.056;2022-11-24T04:20:36;1.40;82.20
68433;DHT22;55412;51.350;17.056;2022-11-24T04:23:03;1.40;82.40
68433;DHT22;55412;51.350;17.056;2022-11-24T04:25:29;1.40;82.50
68433;DHT22;55412;51.350;17.056;2022-11-24T04:27:55;1.50;83.00
68433;DHT22;55412;51.350;17.056;2022-11-24T04:30:25;1.60;82.50
68433;DHT22;55412;51.350;17.056;2022-11-24T04:32:52;1.60;81.90
68433;DHT22;55412;51.350;17.056;2022-11-24T04:35:19;1.80;82.60
68433;DHT22;55412;51.350;17.056;2022-11-24T04:37:45;1.90;81.10
68433;DHT22;55412;51.350;17.056;2022-11-24T04:40:12;2.00;81.00
68433;DHT22;55412;51.350;17.056;2022-11-24T04:42:39;2.00;80.00
68433;DHT22;55412;51.350;17.056;2022-11-24T04:45:06;1.90;80.20
68433;DHT22;55412;51.350;17.056;2022-11-24T04:47:33;1.80;80.70
68433;DHT22;55412;51.350;17.056;2022-11-24T04:49:59;1.80;80.70
68433;DHT22;55412;51.350;17.056;2022-11-24T04:52:25;1.80;80.90
68433;DHT22;55412;51.350;17.056;2022-11-24T04:54:52;1.70;80.60
68433;DHT22;55412;51.350;17.056;2022-11-24T04:57:23;1.70;80.80
68433;DHT22;55412;51.350;17.056;2022-11-24T04:59:51;1.60;81.40
68433;DHT22;55412;51.350;17.056;2022-11-24T05:02:18;1.60;81.70
68433;DHT22;55412;51.350;17.056;2022-11-24T05:04:45;1.60;81.70
68433;DHT22;55412;51.350;17.056;2022-11-24T05:07:15;1.60;82.10
68433;DHT22;55412;51.350;17.056;2022-11-24T05:09:42;1.50;82.00
68433;DHT22;55412;51.350;17.056;2022-11-24T05:12:27;1.50;82.30
68433;DHT22;55412;51.350;17.056;2022-11-24T05:14:59;1.50;81.90
68433;DHT22;55412;51.350;17.056;2022-11-24T05:17:31;1.50;82.60
68433;DHT22;55412;51.350;17.056;2022-11-24T05:19:58;1.50;83.80
68433;DHT22;55412;51.350;17.056;2022-11-24T05:22:26;1.60;83.10
68433;DHT22;55412;51.350;17.056;2022-11-24T05:24:53;1.60;82.60
68433;DHT22;55412;51.350;17.056;2022-11-24T05:27:19;1.60;82.30
68433;DHT22;55412;51.350;17.056;2022-11-24T05:29:45;1.60;82.90
68433;DHT22;55412;51.350;17.056;2022-11-24T05:32:11;1.60;82.60
68433;DHT22;55412;51.350;17.056;2022-11-24T05:34:37;1.60;83.10
68433;DHT22;55412;51.350;17.056;2022-11-24T05:37:04;1.60;82.60
68433;DHT22;55412;51.350;17.056;2022-11-24T05:39:34;1.60;82.80
68433;DHT22;55412;51.350;17.056;2022-11-24T05:42:01;1.60;83.60
68433;DHT22;55412;51.350;17.056;2022-11-24T05:44:48;1.70;83.70
68433;DHT22;55412;51.350;17.056;2022-11-24T05:47:14;1.80;82.80
68433;DHT22;55412;51.350;17.056;2022-11-24T05:49:40;1.80;82.00
68433;DHT22;55412;51.350;17.056;2022-11-24T05:52:06;1.70;81.80
68433;DHT22;55412;51.350;17.056;2022-11-24T05:54:32;1.70;81.40
68433;DHT22;55412;51.350;17.056;2022-11-24T05:56:58;1.60;82.00
68433;DHT22;55412;51.350;17.056;2022-11-24T05:59:24;1.60;81.70
68433;DHT22;55412;51.350;17.056;2022-11-24T06:01:50;1.50;81.10
68433;DHT22;55412;51.350;17.056;2022-11-24T06:04:16;1.50;82.10
68433;DHT22;55412;51.350;17.056;2022-11-24T06:06:42;1.50;82.00
68433;DHT22;55412;51.350;17.056;2022-11-24T06:09:08;1.50;82.60
68433;DHT22;55412;51.350;17.056;2022-11-24T06:11:34;1.60;82.20
68433;DHT22;55412;51.350;17.056;2022-11-24T06:14:00;1.60;82.20
68433;DHT22;55412;51.350;17.056;2022-11-24T06:16:26;1.70;82.40
68433;DHT22;55412;51.350;17.056;2022-11-24T06:18:52;1.70;82.20
68433;DHT22;55412;51.350;17.056;2022-11-24T06:21:18;1.60;81.90
68433;DHT22;55412;51.350;17.056;2022-11-24T06:23:47;1.60;82.00
68433;DHT22;55412;51.350;17.056;2022-11-24T06:26:13;1.60;81.70
68433;DHT22;55412;51.350;17.056;2022-11-24T06:28:39;1.60;82.50
68433;DHT22;55412;51.350;17.056;2022-11-24T06:31:06;1.60;82.60
68433;DHT22;55412;51.350;17.056;2022-11-24T06:33:33;1.60;82.70
68433;DHT22;55412;51.350;17.056;2022-11-24T06:36:12;1.60;82.00
68433;DHT22;55412;51.350;17.056;2022-11-24T06:38:38;1.60;82.30
68433;DHT22;55412;51.350;17.056;2022-11-24T06:41:06;1.60;82.90
68433;DHT22;55412;51.350;17.056;2022-11-24T06:43:34;1.60;83.00
68433;DHT22;55412;51.350;17.056;2022-11-24T06:46:01;1.70;83.10
68433;DHT22;55412;51.350;17.056;2022-11-24T06:48:28;1.70;83.00
68433;DHT22;55412;51.350;17.056;2022-11-24T06:51:01;1.80;83.30
68433;DHT22;55412;51.350;17.056;2022-11-24T06:53:36;1.90;83.30
68433;DHT22;55412;51.350;17.056;2022-11-24T06:56:05;1.90;83.00
68433;DHT22;55412;51.350;17.056;2022-11-24T06:58:43;1.90;82.90
68433;DHT22;55412;51.350;17.056;2022-11-24T07:01:29;1.90;82.90
68433;DHT22;55412;51.350;17.056;2022-11-24T07:03:56;1.90;82.60
68433;DHT22;55412;51.350;17.056;2022-11-24T07:06:23;1.90;83.30
68433;DHT22;55412;51.350;17.056;2022-11-24T07:08:51;1.90;83.10
68433;DHT22;55412;51.350;17.056;2022-11-24T07:11:20;1.80;83.30
68433;DHT22;55412;51.350;17.056;2022-11-24T07:13:47;1.80;83.40
68433;DHT22;55412;51.350;17.056;2022-11-24T07:18:49;1.80;83.70
68433;DHT22;55412;51.350;17.056;2022-11-24T07:21:18;1.90;83.90
68433;DHT22;55412;51.350;17.056;2022-11-24T07:23:47;1.90;83.30
68433;DHT22;55412;51.350;17.056;2022-11-24T07:26:14;1.90;83.40
68433;DHT22;55412;51.350;17.056;2022-11-24T07:28:41;2.00;83.80
68433;DHT22;55412;51.350;17.056;2022-11-24T07:31:12;2.00;82.90
68433;DHT22;55412;51.350;17.056;2022-11-24T07:33:46;2.00;83.20
68433;DHT22;55412;51.350;17.056;2022-11-24T07:36:16;2.00;83.40
68433;DHT22;55412;51.350;17.056;2022-11-24T07:38:42;2.00;83.30
68433;DHT22;55412;51.350;17.056;2022-11-24T07:41:11;2.00;83.60
68433;DHT22;55412;51.350;17.056;2022-11-24T07:43:38;2.00;83.70
68433;DHT22;55412;51.350;17.056;2022-11-24T07:46:06;2.00;83.80
68433;DHT22;55412;51.350;17.056;2022-11-24T07:48:33;2.10;83.80
68433;DHT22;55412;51.350;17.056;2022-11-24T07:51:00;2.10;83.90
68433;DHT22;55412;51.350;17.056;2022-11-24T07:53:27;2.20;84.50
68433;DHT22;55412;51.350;17.056;2022-11-24T07:55:55;2.20;83.20
68433;DHT22;55412;51.350;17.056;2022-11-24T07:58:22;2.20;83.10
68433;DHT22;55412;51.350;17.056;2022-11-24T08:00:48;2.30;83.00
68433;DHT22;55412;51.350;17.056;2022-11-24T08:03:14;2.30;82.80
68433;DHT22;55412;51.350;17.056;2022-11-24T08:05:41;2.30;82.80
68433;DHT22;55412;51.350;17.056;2022-11-24T08:08:07;2.30;82.80
68433;DHT22;55412;51.350;17.056;2022-11-24T08:10:33;2.30;82.80
68433;DHT22;55412;51.350;17.056;2022-11-24T08:13:00;2.30;83.20
68433;DHT22;55412;51.350;17.056;2022-11-24T08:15:26;2.40;82.80
68433;DHT22;55412;51.350;17.056;2022-11-24T08:17:52;2.40;82.60
68433;DHT22;55412;51.350;17.056;2022-11-24T08:20:18;2.50;82.80
68433;DHT22;55412;51.350;17.056;2022-11-24T08:22:44;2.50;82.30
68433;DHT22;55412;51.350;17.056;2022-11-24T08:25:10;2.50;82.10
68433;DHT22;55412;51.350;17.056;2022-11-24T08:27:39;2.40;82.00
68433;DHT22;55412;51.350;17.056;2022-11-24T08:30:05;2.40;81.90
68433;DHT22;55412;51.350;17.056;2022-11-24T08:32:32;2.40;81.80
68433;DHT22;55412;51.350;17.056;2022-11-24T08:34:58;2.20;82.20
68433;DHT22;55412;51.350;17.056;2022-11-24T08:37:24;2.20;83.10
68433;DHT22;55412;51.350;17.056;2022-11-24T08:39:52;2.20;83.10
68433;DHT22;55412;51.350;17.056;2022-11-24T08:42:18;2.20;84.40
68433;DHT22;55412;51.350;17.056;2022-11-24T08:44:44;2.30;84.30
68433;DHT22;55412;51.350;17.056;2022-11-24T08:47:10;2.40;84.20
68433;DHT22;55412;51.350;17.056;2022-11-24T08:49:36;2.40;83.70
68433;DHT22;55412;51.350;17.056;2022-11-24T08:52:02;2.50;83.50
68433;DHT22;55412;51.350;17.056;2022-11-24T08:54:28;2.50;83.10
68433;DHT22;55412;51.350;17.056;2022-11-24T08:56:54;2.50;83.20
68433;DHT22;55412;51.350;17.056;2022-11-24T08:59:20;2.60;83.50
68433;DHT22;55412;51.350;17.056;2022-11-24T09:01:46;2.60;83.10
68433;DHT22;55412;51.350;17.056;2022-11-24T09:04:13;2.60;83.30
68433;DHT22;55412;51.350;17.056;2022-11-24T09:06:39;2.60;83.30
68433;DHT22;55412;51.350;17.056;2022-11-24T09:09:05;2.50;83.20
68433;DHT22;55412;51.350;17.056;2022-11-24T09:11:33;2.50;83.50
68433;DHT22;55412;51.350;17.056;2022-11-24T09:13:59;2.50;83.20
68433;DHT22;55412;51.350;17.056;2022-11-24T09:16:27;2.40;84.00
68433;DHT22;55412;51.350;17.056;2022-11-24T09:19:02;2.50;84.30
68433;DHT22;55412;51.350;17.056;2022-11-24T09:21:30;2.60;83.60
68433;DHT22;55412;51.350;17.056;2022-11-24T09:23:58;2.60;83.60
68433;DHT22;55412;51.350;17.056;2022-11-24T09:26:29;2.70;83.90
68433;DHT22;55412;51.350;17.056;2022-11-24T09:28:58;2.80;83.70
68433;DHT22;55412;51.350;17.056;2022-11-24T09:31:28;2.80;83.40
68433;DHT22;55412;51.350;17.056;2022-11-24T09:33:55;2.90;83.10
68433;DHT22;55412;51.350;17.056;2022-11-24T09:36:22;2.90;83.50
68433;DHT22;55412;51.350;17.056;2022-11-24T09:38:48;2.90;83.40
68433;DHT22;55412;51.350;17.056;2022-11-24T09:41:31;3.00;83.30
68433;DHT22;55412;51.350;17.056;2022-11-24T09:50:25;3.20;82.70
68433;DHT22;55412;51.350;17.056;2022-11-24T09:55:43;3.30;80.80
68433;DHT22;55412;51.350;17.056;2022-11-24T09:58:39;3.20;82.10
68433;DHT22;55412;51.350;17.056;2022-11-24T10:01:20;3.30;81.70
68433;DHT22;55412;51.350;17.056;2022-11-24T10:03:52;3.40;81.60
68433;DHT22;55412;51.350;17.056;2022-11-24T10:10:18;3.40;81.90
68433;DHT22;55412;51.350;17.056;2022-11-24T10:25:06;3.50;81.30
68433;DHT22;55412;51.350;17.056;2022-11-24T10:27:47;3.40;81.10
68433;DHT22;55412;51.350;17.056;2022-11-24T10:30:20;3.50;82.10
68433;DHT22;55412;51.350;17.056;2022-11-24T10:32:48;3.60;82.00
68433;DHT22;55412;51.350;17.056;2022-11-24T10:36:07;3.60;80.70
68433;DHT22;55412;51.350;17.056;2022-11-24T10:41:11;3.60;80.70
68433;DHT22;55412;51.350;17.056;2022-11-24T10:43:42;3.60;80.70
68433;DHT22;55412;51.350;17.056;2022-11-24T10:46:13;3.50;81.10
68433;DHT22;55412;51.350;17.056;2022-11-24T10:48:53;3.60;82.20
68433;DHT22;55412;51.350;17.056;2022-11-24T10:51:46;3.70;82.30
68433;DHT22;55412;51.350;17.056;2022-11-24T10:54:20;3.80;81.50
68433;DHT22;55412;51.350;17.056;2022-11-24T10:56:51;3.90;81.30
68433;DHT22;55412;51.350;17.056;2022-11-24T11:01:53;4.00;80.20
68433;DHT22;55412;51.350;17.056;2022-11-24T11:04:29;3.90;78.60
68433;DHT22;55412;51.350;17.056;2022-11-24T11:07:18;3.90;79.80
68433;DHT22;55412;51.350;17.056;2022-11-24T11:09:47;3.90;78.50
68433;DHT22;55412;51.350;17.056;2022-11-24T11:12:22;3.80;78.80
68433;DHT22;55412;51.350;17.056;2022-11-24T11:14:52;3.90;80.10
68433;DHT22;55412;51.350;17.056;2022-11-24T11:17:44;4.00;80.40
68433;DHT22;55412;51.350;17.056;2022-11-24T11:20:21;4.00;79.60
68433;DHT22;55412;51.350;17.056;2022-11-24T11:23:01;4.10;78.70
68433;DHT22;55412;51.350;17.056;2022-11-24T11:25:34;4.10;79.60
68433;DHT22;55412;51.350;17.056;2022-11-24T11:31:01;4.20;78.70
68433;DHT22;55412;51.350;17.056;2022-11-24T11:33:32;4.10;77.60
68433;DHT22;55412;51.350;17.056;2022-11-24T11:36:08;4.10;78.70
68433;DHT22;55412;51.350;17.056;2022-11-24T11:38:38;4.20;78.30
68433;DHT22;55412;51.350;17.056;2022-11-24T11:41:05;4.20;78.60
68433;DHT22;55412;51.350;17.056;2022-11-24T11:43:37;4.20;77.00
68433;DHT22;55412;51.350;17.056;2022-11-24T11:46:16;4.10;77.40
68433;DHT22;55412;51.350;17.056;2022-11-24T11:48:44;4.10;77.70
68433;DHT22;55412;51.350;17.056;2022-11-24T11:51:36;4.10;77.80
68433;DHT22;55412;51.350;17.056;2022-11-24T11:54:17;4.10;77.70
68433;DHT22;55412;51.350;17.056;2022-11-24T11:57:06;4.10;78.30
68433;DHT22;55412;51.350;17.056;2022-11-24T12:17:31;4.40;76.70
68433;DHT22;55412;51.350;17.056;2022-11-24T12:23:20;4.50;77.00
68433;DHT22;55412;51.350;17.056;2022-11-24T12:26:33;4.50;77.20
68433;DHT22;55412;51.350;17.056;2022-11-24T12:39:05;4.50;76.70
68433;DHT22;55412;51.350;17.056;2022-11-24T12:41:57;4.50;77.60
68433;DHT22;55412;51.350;17.056;2022-11-24T12:47:26;4.60;77.00
68433;DHT22;55412;51.350;17.056;2022-11-24T12:50:22;4.60;77.00
68433;DHT22;55412;51.350;17.056;2022-11-24T12:52:56;4.70;76.90
68433;DHT22;55412;51.350;17.056;2022-11-24T12:55:28;4.70;76.10
68433;DHT22;55412;51.350;17.056;2022-11-24T13:01:32;4.70;76.90
68433;DHT22;55412;51.350;17.056;2022-11-24T13:07:00;4.70;76.30
68433;DHT22;55412;51.350;17.056;2022-11-24T13:09:27;4.70;76.70
68433;DHT22;55412;51.350;17.056;2022-11-24T13:12:11;4.70;76.70
68433;DHT22;55412;51.350;17.056;2022-11-24T13:14:48;4.70;76.90
68433;DHT22;55412;51.350;17.056;2022-11-24T13:17:28;4.70;76.90
68433;DHT22;55412;51.350;17.056;2022-11-24T13:20:15;4.80;76.90
68433;DHT22;55412;51.350;17.056;2022-11-24T13:22:56;4.80;76.30
68433;DHT22;55412;51.350;17.056;2022-11-24T13:25:25;4.80;75.90
68433;DHT22;55412;51.350;17.056;2022-11-24T13:28:00;4.80;75.50
68433;DHT22;55412;51.350;17.056;2022-11-24T13:30:51;4.60;75.10
68433;DHT22;55412;51.350;17.056;2022-11-24T13:33:31;4.50;75.70
68433;DHT22;55412;51.350;17.056;2022-11-24T13:47:27;4.40;75.80
68433;DHT22;55412;51.350;17.056;2022-11-24T13:50:01;4.40;77.30
68433;DHT22;55412;51.350;17.056;2022-11-24T14:00:30;4.60;77.50
68433;DHT22;55412;51.350;17.056;2022-11-24T14:05:50;4.60;76.90
68433;DHT22;55412;51.350;17.056;2022-11-24T14:08:32;4.60;76.80
68433;DHT22;55412;51.350;17.056;2022-11-24T14:11:02;4.60;77.00
68433;DHT22;55412;51.350;17.056;2022-11-24T14:13:35;4.60;76.30
68433;DHT22;55412;51.350;17.056;2022-11-24T14:18:38;4.50;77.20
68433;DHT22;55412;51.350;17.056;2022-11-24T14:21:32;4.50;77.60
68433;DHT22;55412;51.350;17.056;2022-11-24T14:24:24;4.50;76.90
68433;DHT22;55412;51.350;17.056;2022-11-24T14:26:53;4.60;77.30
68433;DHT22;55412;51.350;17.056;2022-11-24T14:29:21;4.60;76.80
68433;DHT22;55412;51.350;17.056;2022-11-24T14:31:53;4.60;76.80
68433;DHT22;55412;51.350;17.056;2022-11-24T14:34:21;4.60;76.60
68433;DHT22;55412;51.350;17.056;2022-11-24T14:36:49;4.60;77.40
68433;DHT22;55412;51.350;17.056;2022-11-24T14:39:21;4.60;77.10
68433;DHT22;55412;51.350;17.056;2022-11-24T14:47:05;4.60;77.60
68433;DHT22;55412;51.350;17.056;2022-11-24T14:49:40;4.60;77.60
68433;DHT22;55412;51.350;17.056;2022-11-24T14:52:15;4.60;77.70
68433;DHT22;55412;51.350;17.056;2022-11-24T14:54:52;4.60;78.20
68433;DHT22;55412;51.350;17.056;2022-11-24T14:57:36;4.60;78.10
68433;DHT22;55412;51.350;17.056;2022-11-24T15:00:24;4.50;77.90
68433;DHT22;55412;51.350;17.056;2022-11-24T15:05:50;4.60;78.40
68433;DHT22;55412;51.350;17.056;2022-11-24T15:08:18;4.60;78.20
68433;DHT22;55412;51.350;17.056;2022-11-24T15:10:44;4.60;78.40
68433;DHT22;55412;51.350;17.056;2022-11-24T15:13:19;4.60;79.00
68433;DHT22;55412;51.350;17.056;2022-11-24T15:15:53;4.60;78.80
68433;DHT22;55412;51.350;17.056;2022-11-24T15:18:36;4.60;78.20
68433;DHT22;55412;51.350;17.056;2022-11-24T15:21:07;4.60;78.10
68433;DHT22;55412;51.350;17.056;2022-11-24T15:23:34;4.60;78.30
68433;DHT22;55412;51.350;17.056;2022-11-24T15:28:28;4.70;77.60
68433;DHT22;55412;51.350;17.056;2022-11-24T15:31:02;4.70;77.40
68433;DHT22;55412;51.350;17.056;2022-11-24T15:33:34;4.60;77.70
68433;DHT22;55412;51.350;17.056;2022-11-24T15:36:00;4.60;78.00
68433;DHT22;55412;51.350;17.056;2022-11-24T15:38:26;4.60;77.60
68433;DHT22;55412;51.350;17.056;2022-11-24T15:40:54;4.50;77.50
68433;DHT22;55412;51.350;17.056;2022-11-24T15:43:37;4.50;77.90
68433;DHT22;55412;51.350;17.056;2022-11-24T15:46:06;4.40;77.70
68433;DHT22;55412;51.350;17.056;2022-11-24T15:48:33;4.40;77.90
68433;DHT22;55412;51.350;17.056;2022-11-24T15:51:02;4.30;77.70
68433;DHT22;55412;51.350;17.056;2022-11-24T15:56:06;4.30;78.50
68433;DHT22;55412;51.350;17.056;2022-11-24T15:58:35;4.30;78.30
68433;DHT22;55412;51.350;17.056;2022-11-24T16:01:01;4.30;78.10
68433;DHT22;55412;51.350;17.056;2022-11-24T16:03:27;4.20;77.90
68433;DHT22;55412;51.350;17.056;2022-11-24T16:05:54;4.20;77.90
68433;DHT22;55412;51.350;17.056;2022-11-24T16:08:22;4.10;78.50
68433;DHT22;55412;51.350;17.056;2022-11-24T16:10:48;4.10;78.20
68433;DHT22;55412;51.350;17.056;2022-11-24T16:13:14;4.00;78.30
68433;DHT22;55412;51.350;17.056;2022-11-24T16:15:40;4.00;79.10
68433;DHT22;55412;51.350;17.056;2022-11-24T16:18:06;4.00;78.60
68433;DHT22;55412;51.350;17.056;2022-11-24T16:20:33;3.90;79.00
68433;DHT22;55412;51.350;17.056;2022-11-24T16:23:04;3.80;79.30
68433;DHT22;55412;51.350;17.056;2022-11-24T16:25:31;3.70;79.50
68433;DHT22;55412;51.350;17.056;2022-11-24T16:27:57;3.70;80.00
68433;DHT22;55412;51.350;17.056;2022-11-24T16:30:23;3.60;80.10
68433;DHT22;55412;51.350;17.056;2022-11-24T16:32:49;3.70;80.20
68433;DHT22;55412;51.350;17.056;2022-11-24T16:35:15;3.70;80.60
68433;DHT22;55412;51.350;17.056;2022-11-24T16:37:42;3.80;80.70
68433;DHT22;55412;51.350;17.056;2022-11-24T16:40:08;3.80;80.60
68433;DHT22;55412;51.350;17.056;2022-11-24T16:42:35;3.80;80.50
68433;DHT22;55412;51.350;17.056;2022-11-24T16:45:01;3.90;80.40
68433;DHT22;55412;51.350;17.056;2022-11-24T16:47:27;3.90;80.10
68433;DHT22;55412;51.350;17.056;2022-11-24T16:49:53;3.90;79.70
68433;DHT22;55412;51.350;17.056;2022-11-24T16:52:19;4.00;79.70
68433;DHT22;55412;51.350;17.056;2022-11-24T16:54:46;4.00;79.70
68433;DHT22;55412;51.350;17.056;2022-11-24T16:57:13;4.00;79.00
68433;DHT22;55412;51.350;17.056;2022-11-24T16:59:40;4.00;79.30
68433;DHT22;55412;51.350;17.056;2022-11-24T17:02:13;4.00;78.60
68433;DHT22;55412;51.350;17.056;2022-11-24T17:04:39;4.00;78.60
68433;DHT22;55412;51.350;17.056;2022-11-24T17:07:06;3.90;78.70
68433;DHT22;55412;51.350;17.056;2022-11-24T17:09:32;3.90;79.00
68433;DHT22;55412;51.350;17.056;2022-11-24T17:11:59;3.90;79.10
68433;DHT22;55412;51.350;17.056;2022-11-24T17:14:26;3.80;78.70
68433;DHT22;55412;51.350;17.056;2022-11-24T17:16:53;3.80;79.20
68433;DHT22;55412;51.350;17.056;2022-11-24T17:19:19;3.80;79.70
68433;DHT22;55412;51.350;17.056;2022-11-24T17:21:47;3.70;79.80
68433;DHT22;55412;51.350;17.056;2022-11-24T17:24:14;3.70;80.00
68433;DHT22;55412;51.350;17.056;2022-11-24T17:26:43;3.70;80.40
68433;DHT22;55412;51.350;17.056;2022-11-24T17:29:10;3.70;79.60
68433;DHT22;55412;51.350;17.056;2022-11-24T17:31:36;3.60;79.90
68433;DHT22;55412;51.350;17.056;2022-11-24T17:34:05;3.60;79.70
68433;DHT22;55412;51.350;17.056;2022-11-24T17:36:33;3.60;79.90
68433;DHT22;55412;51.350;17.056;2022-11-24T17:39:04;3.60;79.50
68433;DHT22;55412;51.350;17.056;2022-11-24T17:41:32;3.50;80.10
68433;DHT22;55412;51.350;17.056;2022-11-24T17:43:59;3.60;80.60
68433;DHT22;55412;51.350;17.056;2022-11-24T17:46:26;3.70;80.50
68433;DHT22;55412;51.350;17.056;2022-11-24T17:48:54;3.70;80.10
68433;DHT22;55412;51.350;17.056;2022-11-24T17:51:22;3.70;79.20
68433;DHT22;55412;51.350;17.056;2022-11-24T17:53:50;3.80;79.30